Time;durP1;ratioP1;P1;durP2;ratioP2;P2;SDS_P1;SDS_P2;PMS_P1;PMS_P2;Temp;Humidity;BMP_temperature;BMP_pressure;BME280_temperature;BME280_humidity;BME280_pressure;Samples;Min_cycle;Max_cycle;Signal;HPM_P1;HPM_P2
2023/05/31 00:00:16;;;;;;;17.07;6.90;;;;;;;;;;5030965;28;20128;-61
2023/05/31 00:02:42;;;;;;;13.57;7.30;;;;;;;;;;5031223;28;20240;-61
2023/05/31 00:05:09;;;;;;;15.37;7.03;;;;;;;;;;5030677;28;20041;-61
2023/05/31 00:07:35;;;;;;;17.47;6.67;;;;;;;;;;5031420;28;20090;-61
2023/05/31 00:10:01;;;;;;;12.90;6.50;;;;;;;;;;5031770;28;20052;-61
2023/05/31 00:12:27;;;;;;;14.93;7.27;;;;;;;;;;5050733;28;20517;-61
2023/05/31 00:14:53;;;;;;;18.57;7.77;;;;;;;;;;5050636;28;20125;-60
2023/05/31 00:17:19;;;;;;;16.67;7.27;;;;;;;;;;5050300;28;20055;-61
2023/05/31 00:19:45;;;;;;;14.57;6.83;;;;;;;;;;5050345;28;20037;-60
2023/05/31 00:22:11;;;;;;;19.03;6.97;;;;;;;;;;5050606;28;20045;-61
2023/05/31 00:24:37;;;;;;;12.63;7.07;;;;;;;;;;5050529;28;20087;-61
2023/05/31 00:27:04;;;;;;;19.30;7.87;;;;;;;;;;5050236;28;20131;-61
2023/05/31 00:29:30;;;;;;;17.87;8.03;;;;;;;;;;5049306;28;20064;-61
2023/05/31 00:31:56;;;;;;;17.37;7.40;;;;;;;;;;5049996;28;20064;-61
2023/05/31 00:34:22;;;;;;;18.97;8.60;;;;;;;;;;5049461;28;20171;-61
2023/05/31 00:36:48;;;;;;;17.77;8.17;;;;;;;;;;5049456;28;20044;-60
2023/05/31 00:39:14;;;;;;;17.27;7.37;;;;;;;;;;5049182;28;20056;-61
2023/05/31 00:41:40;;;;;;;16.30;7.77;;;;;;;;;;5038297;28;20407;-61
2023/05/31 00:44:06;;;;;;;20.23;8.00;;;;;;;;;;5029685;28;20054;-61
2023/05/31 00:46:34;;;;;;;16.27;8.37;;;;;;;;;;5028938;28;20408;-61
2023/05/31 00:49:00;;;;;;;15.50;8.00;;;;;;;;;;5029567;28;20056;-61
2023/05/31 00:51:27;;;;;;;21.60;8.63;;;;;;;;;;5028771;28;20415;-61
2023/05/31 00:53:54;;;;;;;17.07;7.83;;;;;;;;;;5029618;28;20053;-61
2023/05/31 00:56:21;;;;;;;21.03;8.43;;;;;;;;;;5029408;28;20078;-61
2023/05/31 00:58:48;;;;;;;21.87;9.00;;;;;;;;;;5029001;28;20504;-61
2023/05/31 01:01:14;;;;;;;19.83;8.43;;;;;;;;;;5029629;28;20053;-61
2023/05/31 01:03:43;;;;;;;23.27;8.63;;;;;;;;;;5029403;28;20057;-61
2023/05/31 01:06:10;;;;;;;18.97;7.80;;;;;;;;;;5028846;28;20041;-61
2023/05/31 01:08:36;;;;;;;18.37;7.70;;;;;;;;;;5028913;28;20053;-61
2023/05/31 01:11:07;;;;;;;20.40;8.77;;;;;;;;;;5029220;28;20063;-61
2023/05/31 01:13:33;;;;;;;20.03;8.60;;;;;;;;;;5032507;28;20045;-61
2023/05/31 01:16:06;;;;;;;19.53;8.03;;;;;;;;;;5047282;28;20041;-61
2023/05/31 01:18:37;;;;;;;25.92;9.23;;;;;;;;;;5048798;28;20056;-61
2023/05/31 01:21:05;;;;;;;17.13;9.17;;;;;;;;;;5049134;28;20049;-61
2023/05/31 01:23:31;;;;;;;19.00;8.53;;;;;;;;;;5048967;28;20057;-61
2023/05/31 01:26:12;;;;;;;25.37;10.10;;;;;;;;;;5048709;28;20045;-61
2023/05/31 01:28:41;;;;;;;25.40;10.30;;;;;;;;;;5047926;28;20048;-61
2023/05/31 01:31:12;;;;;;;21.03;9.53;;;;;;;;;;5048452;28;20132;-61
2023/05/31 01:33:38;;;;;;;18.60;9.10;;;;;;;;;;5048371;28;20053;-61
2023/05/31 01:36:05;;;;;;;24.63;9.20;;;;;;;;;;5048381;28;20049;-61
2023/05/31 01:38:32;;;;;;;24.33;9.37;;;;;;;;;;5048449;28;20072;-61
2023/05/31 01:40:58;;;;;;;23.77;8.80;;;;;;;;;;5040788;28;20400;-61
2023/05/31 01:43:26;;;;;;;24.20;9.07;;;;;;;;;;5027797;28;20077;-61
2023/05/31 01:45:52;;;;;;;27.07;9.93;;;;;;;;;;5028168;28;20041;-60
2023/05/31 01:48:18;;;;;;;23.60;9.50;;;;;;;;;;5047908;28;20472;-61
2023/05/31 01:50:45;;;;;;;24.20;9.30;;;;;;;;;;5047450;28;20136;-60
2023/05/31 01:53:11;;;;;;;29.93;9.47;;;;;;;;;;5048293;28;20132;-60
2023/05/31 01:55:38;;;;;;;27.73;10.17;;;;;;;;;;5048417;28;20521;-61
2023/05/31 01:58:04;;;;;;;30.37;9.93;;;;;;;;;;5047243;28;20063;-61
2023/05/31 02:00:31;;;;;;;28.07;10.27;;;;;;;;;;5048360;28;20048;-61
2023/05/31 02:02:57;;;;;;;29.87;10.27;;;;;;;;;;5047657;28;20468;-61
2023/05/31 02:05:23;;;;;;;27.17;9.93;;;;;;;;;;5048237;28;20128;-61
2023/05/31 02:07:49;;;;;;;33.77;10.83;;;;;;;;;;5048460;28;20393;-61
2023/05/31 02:10:16;;;;;;;28.50;11.00;;;;;;;;;;5046472;28;20045;-61
2023/05/31 02:12:42;;;;;;;24.73;9.53;;;;;;;;;;5047642;28;20471;-60
2023/05/31 02:15:12;;;;;;;25.47;9.47;;;;;;;;;;5047828;28;20124;-61
2023/05/31 02:17:42;;;;;;;24.33;9.03;;;;;;;;;;5048076;28;20194;-61
2023/05/31 02:20:13;;;;;;;28.33;11.47;;;;;;;;;;5033880;28;20041;-61
2023/05/31 02:22:40;;;;;;;30.33;9.77;;;;;;;;;;5028202;28;20049;-60
2023/05/31 02:25:06;;;;;;;23.57;9.37;;;;;;;;;;5028044;28;20137;-61
2023/05/31 02:27:32;;;;;;;24.00;9.87;;;;;;;;;;5026555;28;20041;-61
2023/05/31 02:29:58;;;;;;;34.03;11.60;;;;;;;;;;5028233;28;20727;-61
2023/05/31 02:32:24;;;;;;;21.93;9.37;;;;;;;;;;5027871;28;20574;-61
2023/05/31 02:34:50;;;;;;;30.47;11.20;;;;;;;;;;5027669;28;20049;-61
2023/05/31 02:37:16;;;;;;;28.73;10.33;;;;;;;;;;5028002;28;20092;-61
2023/05/31 02:39:42;;;;;;;30.93;10.50;;;;;;;;;;5027914;28;20045;-61
2023/05/31 02:42:08;;;;;;;28.17;10.00;;;;;;;;;;5027120;28;20492;-61
2023/05/31 02:44:34;;;;;;;32.07;11.27;;;;;;;;;;5027983;28;20050;-61
2023/05/31 02:47:00;;;;;;;27.80;10.57;;;;;;;;;;5027902;28;20076;-61
2023/05/31 02:49:26;;;;;;;27.73;9.67;;;;;;;;;;5027532;28;20050;-61
2023/05/31 02:51:52;;;;;;;36.63;11.27;;;;;;;;;;5027780;28;20057;-60
2023/05/31 02:54:18;;;;;;;28.87;11.17;;;;;;;;;;5027467;28;20168;-61
2023/05/31 02:56:47;;;;;;;27.37;10.50;;;;;;;;;;5027742;28;20080;-61
2023/05/31 02:59:13;;;;;;;34.67;12.27;;;;;;;;;;5027680;28;20088;-61
2023/05/31 03:01:39;;;;;;;25.90;9.83;;;;;;;;;;5027737;28;20045;-61
2023/05/31 03:04:05;;;;;;;33.80;11.70;;;;;;;;;;5027766;28;20057;-61
2023/05/31 03:06:31;;;;;;;30.47;10.33;;;;;;;;;;5027907;28;20049;-61
2023/05/31 03:08:57;;;;;;;28.73;10.63;;;;;;;;;;5029417;28;20041;-61
2023/05/31 03:11:23;;;;;;;30.53;10.97;;;;;;;;;;5031309;28;20045;-61
2023/05/31 03:13:49;;;;;;;30.43;10.23;;;;;;;;;;5031400;28;20099;-61
2023/05/31 03:16:16;;;;;;;25.87;10.67;;;;;;;;;;5030479;28;20046;-61
2023/05/31 03:18:42;;;;;;;31.67;11.27;;;;;;;;;;5031053;28;20049;-61
2023/05/31 03:21:08;;;;;;;28.50;10.57;;;;;;;;;;5030988;28;20046;-61
2023/05/31 03:23:34;;;;;;;40.07;13.47;;;;;;;;;;5029746;28;20045;-60
2023/05/31 03:26:00;;;;;;;43.67;13.97;;;;;;;;;;5030757;28;20077;-61
2023/05/31 03:28:26;;;;;;;29.77;11.93;;;;;;;;;;5031497;28;20045;-61
2023/05/31 03:30:52;;;;;;;36.07;13.37;;;;;;;;;;5030903;28;20045;-61
2023/05/31 03:33:19;;;;;;;35.97;14.13;;;;;;;;;;5037577;28;20095;-61
2023/05/31 03:35:45;;;;;;;22.73;9.57;;;;;;;;;;5036792;28;20418;-61
2023/05/31 03:38:11;;;;;;;19.50;8.10;;;;;;;;;;5030631;28;20491;-61
2023/05/31 03:40:37;;;;;;;29.50;12.00;;;;;;;;;;5030537;28;20041;-61
2023/05/31 03:43:03;;;;;;;38.23;14.40;;;;;;;;;;5030928;28;20111;-61
2023/05/31 03:45:29;;;;;;;35.03;14.17;;;;;;;;;;5030396;28;20060;-61
2023/05/31 03:47:55;;;;;;;37.07;12.53;;;;;;;;;;5044468;28;20064;-61
2023/05/31 03:50:21;;;;;;;34.67;11.37;;;;;;;;;;5049248;28;20103;-61
2023/05/31 03:52:47;;;;;;;33.33;11.97;;;;;;;;;;5050187;28;20110;-61
2023/05/31 03:55:13;;;;;;;39.40;13.03;;;;;;;;;;5033544;28;20060;-61
2023/05/31 03:57:39;;;;;;;23.30;9.57;;;;;;;;;;5029827;28;20045;-61
2023/05/31 04:00:06;;;;;;;20.10;9.90;;;;;;;;;;5030572;28;20103;-61
2023/05/31 04:02:32;;;;;;;35.30;12.90;;;;;;;;;;5029716;28;20037;-61
2023/05/31 04:04:58;;;;;;;31.73;13.33;;;;;;;;;;5030527;28;20057;-60
2023/05/31 04:07:24;;;;;;;23.20;10.30;;;;;;;;;;5030196;28;20480;-60
2023/05/31 04:09:50;;;;;;;31.33;12.70;;;;;;;;;;5030019;28;20427;-60
2023/05/31 04:12:16;;;;;;;26.87;11.13;;;;;;;;;;5029121;28;20045;-60
2023/05/31 04:14:42;;;;;;;30.17;11.87;;;;;;;;;;5032491;28;20052;-60
2023/05/31 04:17:08;;;;;;;33.07;11.67;;;;;;;;;;5030037;28;20462;-60
2023/05/31 04:19:34;;;;;;;24.47;9.50;;;;;;;;;;5029562;28;20076;-60
2023/05/31 04:22:01;;;;;;;36.80;13.17;;;;;;;;;;5028984;28;20136;-60
2023/05/31 04:24:27;;;;;;;42.13;14.40;;;;;;;;;;5029825;28;20049;-60
2023/05/31 04:26:53;;;;;;;38.33;13.17;;;;;;;;;;5029923;28;20049;-60
2023/05/31 04:29:19;;;;;;;39.43;13.13;;;;;;;;;;5028754;28;20045;-61
2023/05/31 04:31:45;;;;;;;42.43;14.60;;;;;;;;;;5029306;28;20492;-60
2023/05/31 04:34:17;;;;;;;35.27;13.20;;;;;;;;;;5029348;28;20569;-61
2023/05/31 04:36:44;;;;;;;44.53;14.57;;;;;;;;;;5029589;28;20500;-60
2023/05/31 04:39:14;;;;;;;47.73;16.70;;;;;;;;;;5029270;28;20045;-61
2023/05/31 04:41:40;;;;;;;51.90;16.00;;;;;;;;;;5029477;28;20049;-61
2023/05/31 04:44:07;;;;;;;54.33;16.37;;;;;;;;;;5029633;28;20444;-61
2023/05/31 04:46:33;;;;;;;42.43;15.93;;;;;;;;;;5029112;28;20650;-61
2023/05/31 04:49:00;;;;;;;64.17;18.53;;;;;;;;;;5028341;28;20142;-60
2023/05/31 04:51:26;;;;;;;51.20;16.57;;;;;;;;;;5029433;28;20049;-60
2023/05/31 04:53:53;;;;;;;34.87;14.20;;;;;;;;;;5029187;28;20041;-60
2023/05/31 04:56:19;;;;;;;45.60;17.30;;;;;;;;;;5029224;28;20049;-61
2023/05/31 04:58:46;;;;;;;45.97;15.90;;;;;;;;;;5028751;28;20524;-60
2023/05/31 05:01:15;;;;;;;53.93;17.90;;;;;;;;;;5028835;28;20046;-60
2023/05/31 05:03:41;;;;;;;53.73;19.27;;;;;;;;;;5029257;28;20052;-61
2023/05/31 05:06:15;;;;;;;56.17;18.47;;;;;;;;;;5029108;28;20521;-60
2023/05/31 05:08:42;;;;;;;52.23;18.33;;;;;;;;;;5029164;28;20550;-61
2023/05/31 05:11:08;;;;;;;48.07;16.97;;;;;;;;;;5028555;28;20049;-60
2023/05/31 05:13:34;;;;;;;52.70;19.60;;;;;;;;;;5028548;28;20060;-60
2023/05/31 05:16:00;;;;;;;49.90;18.23;;;;;;;;;;5028985;28;20042;-60
2023/05/31 05:18:26;;;;;;;62.70;20.93;;;;;;;;;;5028731;28;20489;-61
2023/05/31 05:20:53;;;;;;;48.23;18.33;;;;;;;;;;5028640;28;20681;-60
2023/05/31 05:23:19;;;;;;;60.17;19.57;;;;;;;;;;5034064;28;20049;-60
2023/05/31 05:25:45;;;;;;;64.27;19.97;;;;;;;;;;5028275;28;20120;-60
2023/05/31 05:28:11;;;;;;;49.57;18.23;;;;;;;;;;5029467;28;20053;-60
2023/05/31 05:30:37;;;;;;;51.07;17.60;;;;;;;;;;5039166;28;20049;-60
2023/05/31 05:33:04;;;;;;;56.43;18.97;;;;;;;;;;5028542;28;20080;-60
2023/05/31 05:35:30;;;;;;;38.83;16.67;;;;;;;;;;5028768;28;20060;-60
2023/05/31 05:37:57;;;;;;;42.47;17.00;;;;;;;;;;5027975;28;20064;-60
2023/05/31 05:40:24;;;;;;;51.17;18.00;;;;;;;;;;5028982;28;20442;-60
2023/05/31 05:42:50;;;;;;;44.23;16.57;;;;;;;;;;5028887;28;20415;-60
2023/05/31 05:45:16;;;;;;;47.80;17.67;;;;;;;;;;5038362;28;20092;-60
2023/05/31 05:47:44;;;;;;;43.97;17.00;;;;;;;;;;5033756;28;20038;-60
2023/05/31 05:50:11;;;;;;;38.10;17.37;;;;;;;;;;5028144;28;20072;-60
2023/05/31 05:52:38;;;;;;;49.73;18.27;;;;;;;;;;5040642;28;20040;-61
2023/05/31 05:55:04;;;;;;;43.60;17.30;;;;;;;;;;5048101;28;20045;-61
2023/05/31 05:57:31;;;;;;;34.17;15.43;;;;;;;;;;5047965;28;20418;-60
2023/05/31 05:59:57;;;;;;;28.70;13.93;;;;;;;;;;5047651;28;20056;-61
2023/05/31 06:02:24;;;;;;;32.17;15.13;;;;;;;;;;5047599;28;20499;-60
2023/05/31 06:04:51;;;;;;;31.13;15.20;;;;;;;;;;5047753;28;20056;-60
2023/05/31 06:07:18;;;;;;;27.77;14.47;;;;;;;;;;5047918;28;20045;-60
2023/05/31 06:09:44;;;;;;;32.80;15.43;;;;;;;;;;5047939;28;20041;-61
2023/05/31 06:12:10;;;;;;;36.43;15.27;;;;;;;;;;5039594;28;20128;-60
2023/05/31 06:14:36;;;;;;;30.77;13.33;;;;;;;;;;5028004;28;20053;-60
2023/05/31 06:17:02;;;;;;;28.40;12.70;;;;;;;;;;5027772;28;20050;-60
2023/05/31 06:19:28;;;;;;;29.50;14.47;;;;;;;;;;5027848;28;21039;-60
2023/05/31 06:21:57;;;;;;;21.87;13.90;;;;;;;;;;5028911;28;20053;-60
2023/05/31 06:24:23;;;;;;;29.27;13.47;;;;;;;;;;5046426;28;20134;-60
2023/05/31 06:26:49;;;;;;;24.90;12.37;;;;;;;;;;5047961;28;20087;-60
2023/05/31 06:29:15;;;;;;;25.47;12.53;;;;;;;;;;5039296;28;20053;-61
2023/05/31 06:31:42;;;;;;;25.10;12.03;;;;;;;;;;5045221;28;20467;-60
2023/05/31 06:34:09;;;;;;;46.30;15.40;;;;;;;;;;5047484;28;20084;-60
2023/05/31 06:36:35;;;;;;;47.43;15.07;;;;;;;;;;5047637;28;20056;-60
2023/05/31 06:39:02;;;;;;;31.30;12.17;;;;;;;;;;5047455;28;20048;-60
2023/05/31 06:41:29;;;;;;;38.27;13.63;;;;;;;;;;5047963;28;20125;-60
2023/05/31 06:43:55;;;;;;;22.67;11.40;;;;;;;;;;5048661;28;20057;-61
2023/05/31 06:46:21;;;;;;;51.97;16.80;;;;;;;;;;5051247;28;20048;-61
2023/05/31 06:48:47;;;;;;;21.83;9.83;;;;;;;;;;5051576;28;20091;-61
2023/05/31 06:51:13;;;;;;;27.83;12.90;;;;;;;;;;5051378;28;20045;-61
2023/05/31 06:53:39;;;;;;;21.87;11.43;;;;;;;;;;5036000;28;20518;-60
2023/05/31 06:56:06;;;;;;;25.30;10.80;;;;;;;;;;5031419;28;20056;-60
2023/05/31 06:58:32;;;;;;;18.80;9.40;;;;;;;;;;5030881;28;20052;-61
2023/05/31 07:00:58;;;;;;;16.67;10.13;;;;;;;;;;5044262;28;20087;-60
2023/05/31 07:03:25;;;;;;;20.50;9.53;;;;;;;;;;5040339;28;20579;-61
2023/05/31 07:05:51;;;;;;;18.90;9.90;;;;;;;;;;5031363;28;20060;-61
2023/05/31 07:08:17;;;;;;;18.10;9.13;;;;;;;;;;5030894;28;20045;-61
2023/05/31 07:10:45;;;;;;;20.47;9.03;;;;;;;;;;5040105;28;20045;-60
2023/05/31 07:13:11;;;;;;;17.10;8.73;;;;;;;;;;5045932;28;20119;-61
2023/05/31 07:15:37;;;;;;;21.20;9.57;;;;;;;;;;5051075;28;20549;-60
2023/05/31 07:18:03;;;;;;;17.33;9.27;;;;;;;;;;5050900;28;20571;-61
2023/05/31 07:20:29;;;;;;;18.13;9.43;;;;;;;;;;5050607;28;20041;-60
2023/05/31 07:22:57;;;;;;;15.30;8.23;;;;;;;;;;5050669;28;20072;-61
2023/05/31 07:25:24;;;;;;;15.37;8.77;;;;;;;;;;5051040;28;20603;-61
2023/05/31 07:27:50;;;;;;;19.13;8.60;;;;;;;;;;5049925;28;20055;-60
2023/05/31 07:30:16;;;;;;;12.93;7.33;;;;;;;;;;5050872;28;20041;-60
2023/05/31 07:32:42;;;;;;;14.50;7.37;;;;;;;;;;5050433;28;20060;-61
2023/05/31 07:35:08;;;;;;;13.93;7.17;;;;;;;;;;5050678;28;20053;-61
2023/05/31 07:37:34;;;;;;;15.73;7.23;;;;;;;;;;5050428;28;20049;-61
2023/05/31 07:40:00;;;;;;;10.17;5.90;;;;;;;;;;5049228;28;20052;-61
2023/05/31 07:42:28;;;;;;;15.20;6.20;;;;;;;;;;5049645;28;20044;-61
2023/05/31 07:44:54;;;;;;;10.30;5.53;;;;;;;;;;5050366;28;20507;-61
2023/05/31 07:47:20;;;;;;;11.20;5.60;;;;;;;;;;5040699;28;20099;-61
2023/05/31 07:49:46;;;;;;;11.53;5.00;;;;;;;;;;5030151;28;20049;-61
2023/05/31 07:52:12;;;;;;;13.67;4.80;;;;;;;;;;5030568;28;20053;-60
2023/05/31 07:54:38;;;;;;;14.13;4.63;;;;;;;;;;5028871;28;20252;-61
2023/05/31 07:57:04;;;;;;;8.93;4.67;;;;;;;;;;5029987;28;21260;-61
2023/05/31 07:59:30;;;;;;;8.57;4.70;;;;;;;;;;5030090;28;20088;-61
2023/05/31 08:01:56;;;;;;;10.73;4.93;;;;;;;;;;5030147;28;20087;-61
2023/05/31 08:04:22;;;;;;;13.37;4.80;;;;;;;;;;5030347;28;20041;-61
2023/05/31 08:06:48;;;;;;;7.70;3.90;;;;;;;;;;5029919;28;20125;-61
2023/05/31 08:09:15;;;;;;;9.50;4.07;;;;;;;;;;5029901;28;20053;-61
2023/05/31 08:11:41;;;;;;;9.73;4.00;;;;;;;;;;5045355;28;20401;-61
2023/05/31 08:14:07;;;;;;;5.73;3.47;;;;;;;;;;5049825;28;20045;-61
2023/05/31 08:16:33;;;;;;;7.53;3.37;;;;;;;;;;5039690;28;20037;-61
2023/05/31 08:19:00;;;;;;;7.03;4.10;;;;;;;;;;5043073;28;20052;-61
2023/05/31 08:21:26;;;;;;;6.67;3.70;;;;;;;;;;5032686;28;20579;-61
2023/05/31 08:23:52;;;;;;;9.33;3.97;;;;;;;;;;5029520;28;20186;-61
2023/05/31 08:26:18;;;;;;;9.67;4.03;;;;;;;;;;5029415;28;20385;-61
2023/05/31 08:28:45;;;;;;;8.30;3.37;;;;;;;;;;5029537;28;20656;-61
2023/05/31 08:31:11;;;;;;;6.87;3.80;;;;;;;;;;5029148;28;20049;-61
2023/05/31 08:33:37;;;;;;;9.50;4.13;;;;;;;;;;5048477;28;20049;-61
2023/05/31 08:36:03;;;;;;;8.67;5.00;;;;;;;;;;5044767;28;20037;-61
2023/05/31 08:38:30;;;;;;;8.00;4.03;;;;;;;;;;5029284;28;20052;-61
2023/05/31 08:41:01;;;;;;;7.90;3.70;;;;;;;;;;5036229;28;20053;-61
2023/05/31 08:43:28;;;;;;;8.63;3.80;;;;;;;;;;5029368;28;20038;-62
2023/05/31 08:45:54;;;;;;;9.10;4.40;;;;;;;;;;5029247;28;20068;-61
2023/05/31 08:48:38;;;;;;;9.07;3.80;;;;;;;;;;5029411;28;20041;-61
2023/05/31 08:51:06;;;;;;;7.83;3.60;;;;;;;;;;5035157;28;20041;-61
2023/05/31 08:53:34;;;;;;;12.53;3.97;;;;;;;;;;5049094;28;20080;-61
2023/05/31 08:56:07;;;;;;;8.10;4.10;;;;;;;;;;5048856;28;20064;-61
2023/05/31 08:58:35;;;;;;;6.85;3.72;;;;;;;;;;5035808;28;20542;-61
2023/05/31 09:01:02;;;;;;;9.10;4.07;;;;;;;;;;5036023;28;20041;-61
2023/05/31 09:03:28;;;;;;;5.83;3.40;;;;;;;;;;5029182;28;20091;-61
2023/05/31 09:05:55;;;;;;;7.87;3.50;;;;;;;;;;5028728;28;20064;-61
2023/05/31 09:08:21;;;;;;;8.00;3.40;;;;;;;;;;5028954;28;20120;-62
2023/05/31 09:10:47;;;;;;;7.70;3.93;;;;;;;;;;5040551;28;20041;-61
2023/05/31 09:13:14;;;;;;;7.60;3.87;;;;;;;;;;5048055;28;20128;-61
2023/05/31 09:15:40;;;;;;;8.50;4.30;;;;;;;;;;5045305;28;20053;-61
2023/05/31 09:18:14;;;;;;;9.00;4.53;;;;;;;;;;5047127;28;20128;-61
2023/05/31 09:20:40;;;;;;;11.47;4.30;;;;;;;;;;5048670;28;20084;-61
2023/05/31 09:23:06;;;;;;;6.87;3.63;;;;;;;;;;5047995;28;20351;-61
2023/05/31 09:25:43;;;;;;;9.38;4.15;;;;;;;;;;5037598;28;20041;-61
2023/05/31 09:28:09;;;;;;;8.98;3.70;;;;;;;;;;5044088;28;20036;-61
2023/05/31 09:30:36;;;;;;;9.93;3.70;;;;;;;;;;5047942;28;20784;-61
2023/05/31 09:33:02;;;;;;;6.93;3.60;;;;;;;;;;5032253;28;20473;-61
2023/05/31 09:35:28;;;;;;;11.43;4.20;;;;;;;;;;5048819;28;20048;-61
2023/05/31 09:37:54;;;;;;;7.57;3.60;;;;;;;;;;5034840;28;20492;-61
2023/05/31 09:40:23;;;;;;;8.50;3.65;;;;;;;;;;5047650;28;20419;-61
2023/05/31 09:42:50;;;;;;;9.52;3.80;;;;;;;;;;5048444;28;20132;-62
2023/05/31 09:45:16;;;;;;;8.98;3.90;;;;;;;;;;5047804;28;20045;-61
2023/05/31 09:47:42;;;;;;;8.05;5.20;;;;;;;;;;5046023;28;20041;-62
2023/05/31 09:50:12;;;;;;;10.85;3.85;;;;;;;;;;5046445;28;20056;-61
2023/05/31 09:52:38;;;;;;;6.40;3.60;;;;;;;;;;5048317;28;20041;-61
2023/05/31 09:55:10;;;;;;;8.88;4.22;;;;;;;;;;5047845;28;20120;-62
2023/05/31 09:57:40;;;;;;;11.63;4.20;;;;;;;;;;5034351;28;20150;-62
2023/05/31 10:00:20;;;;;;;7.18;3.65;;;;;;;;;;5035170;28;20045;-62
2023/05/31 10:02:47;;;;;;;7.82;3.25;;;;;;;;;;5030399;28;20123;-62
2023/05/31 10:05:13;;;;;;;8.80;3.88;;;;;;;;;;5035892;28;20707;-61
2023/05/31 10:07:40;;;;;;;8.93;4.18;;;;;;;;;;5034470;28;20084;-61
2023/05/31 10:10:10;;;;;;;7.95;3.72;;;;;;;;;;5041319;28;20038;-62
2023/05/31 10:12:43;;;;;;;7.20;3.90;;;;;;;;;;5029376;28;20836;-62
2023/05/31 10:15:11;;;;;;;8.20;3.55;;;;;;;;;;5042281;28;20469;-62
2023/05/31 10:17:43;;;;;;;6.85;3.60;;;;;;;;;;5048921;28;20072;-62
2023/05/31 10:20:12;;;;;;;9.82;4.07;;;;;;;;;;5053222;28;20044;-62
2023/05/31 10:22:40;;;;;;;8.23;3.80;;;;;;;;;;5047369;28;20046;-62
2023/05/31 10:25:18;;;;;;;9.77;3.97;;;;;;;;;;5033350;28;20128;-61
2023/05/31 10:27:45;;;;;;;7.68;4.10;;;;;;;;;;5035291;28;20484;-62
2023/05/31 10:30:12;;;;;;;9.55;4.18;;;;;;;;;;5053191;28;20041;-62
2023/05/31 10:32:43;;;;;;;9.73;4.35;;;;;;;;;;5053178;28;20049;-62
2023/05/31 10:35:09;;;;;;;7.70;4.18;;;;;;;;;;5041645;28;20512;-62
2023/05/31 10:37:36;;;;;;;7.30;4.53;;;;;;;;;;5032769;28;20397;-62
2023/05/31 10:40:09;;;;;;;9.52;3.97;;;;;;;;;;5050209;28;20575;-62
2023/05/31 10:42:44;;;;;;;9.18;3.65;;;;;;;;;;5053102;28;20045;-62
2023/05/31 10:45:14;;;;;;;9.80;4.53;;;;;;;;;;5052951;28;20498;-62
2023/05/31 10:47:42;;;;;;;9.13;3.85;;;;;;;;;;5045972;28;20132;-62
2023/05/31 10:50:09;;;;;;;8.35;3.15;;;;;;;;;;5049670;28;20103;-62
2023/05/31 10:52:35;;;;;;;8.70;4.13;;;;;;;;;;5048839;28;20500;-62
2023/05/31 10:55:30;;;;;;;9.60;3.97;;;;;;;;;;5036635;28;20077;-62
2023/05/31 10:57:56;;;;;;;9.65;4.15;;;;;;;;;;5041225;28;20053;-61
2023/05/31 11:00:23;;;;;;;11.18;4.20;;;;;;;;;;5052728;28;20048;-62
2023/05/31 11:02:51;;;;;;;7.53;3.45;;;;;;;;;;5040475;28;20500;-62
2023/05/31 11:05:21;;;;;;;8.80;4.03;;;;;;;;;;5047292;28;20045;-62
2023/05/31 11:07:48;;;;;;;7.93;3.60;;;;;;;;;;5052223;28;20052;-62
2023/05/31 11:10:32;;;;;;;6.32;3.10;;;;;;;;;;5049815;28;20044;-62
2023/05/31 11:13:02;;;;;;;8.48;3.70;;;;;;;;;;5042531;28;20045;-62
2023/05/31 11:15:45;;;;;;;7.47;3.97;;;;;;;;;;5030102;28;20045;-62
2023/05/31 11:18:11;;;;;;;;;;;;;;;;;;5031459;28;20075;-62
2023/05/31 11:20:37;;;;;;;7.80;3.50;;;;;;;;;;5030925;28;19943;-62
2023/05/31 11:23:21;;;;;;;7.45;4.18;;;;;;;;;;5031759;28;20479;-62
2023/05/31 11:26:06;;;;;;;7.68;3.50;;;;;;;;;;5042032;28;20049;-62
2023/05/31 11:28:32;;;;;;;8.43;4.53;;;;;;;;;;5031082;28;20053;-62
2023/05/31 11:30:58;;;;;;;7.50;3.65;;;;;;;;;;5030424;28;20045;-62
2023/05/31 11:33:26;;;;;;;6.53;3.78;;;;;;;;;;5031112;28;20087;-62
2023/05/31 11:35:52;;;;;;;8.68;3.60;;;;;;;;;;5030862;28;20077;-62
2023/05/31 11:38:18;;;;;;;5.88;3.30;;;;;;;;;;5030816;28;20085;-62
2023/05/31 11:40:44;;;;;;;10.07;3.38;;;;;;;;;;5030884;28;20077;-62
2023/05/31 11:43:11;;;;;;;10.93;4.57;;;;;;;;;;5030401;28;20053;-62
2023/05/31 11:45:40;;;;;;;10.05;4.20;;;;;;;;;;5030093;28;20050;-62
2023/05/31 11:48:09;;;;;;;7.63;3.15;;;;;;;;;;5034923;28;20048;-62
2023/05/31 11:50:35;;;;;;;7.70;4.18;;;;;;;;;;5051655;28;20045;-62
2023/05/31 11:53:06;;;;;;;7.28;3.30;;;;;;;;;;5047335;28;20051;-62
2023/05/31 11:55:32;;;;;;;7.38;3.72;;;;;;;;;;5031810;28;20041;-62
2023/05/31 11:57:59;;;;;;;8.27;3.42;;;;;;;;;;5050750;28;20613;-62
2023/05/31 12:00:27;;;;;;;5.20;2.72;;;;;;;;;;5051490;28;20545;-62
2023/05/31 12:02:53;;;;;;;5.78;3.08;;;;;;;;;;5051273;28;20049;-62
2023/05/31 12:05:22;;;;;;;5.97;2.33;;;;;;;;;;5048090;28;20557;-62
2023/05/31 12:07:48;;;;;;;6.95;3.15;;;;;;;;;;5031405;28;20041;-62
2023/05/31 12:10:16;;;;;;;7.75;3.65;;;;;;;;;;5031033;28;20050;-62
2023/05/31 12:12:42;;;;;;;9.25;3.63;;;;;;;;;;5031642;28;20107;-62
2023/05/31 12:15:12;;;;;;;5.68;3.05;;;;;;;;;;5031466;28;20037;-62
2023/05/31 12:17:38;;;;;;;6.88;3.38;;;;;;;;;;5030849;28;20076;-62
2023/05/31 12:20:08;;;;;;;7.65;3.10;;;;;;;;;;5047061;28;20363;-62
2023/05/31 12:22:34;;;;;;;8.60;3.85;;;;;;;;;;5046750;28;20083;-62
2023/05/31 12:25:00;;;;;;;8.25;3.75;;;;;;;;;;5047570;28;20360;-62
2023/05/31 12:27:29;;;;;;;8.48;3.95;;;;;;;;;;5050771;28;20049;-62
2023/05/31 12:29:55;;;;;;;12.00;3.90;;;;;;;;;;5039542;28;20045;-62
2023/05/31 12:32:22;;;;;;;6.00;3.15;;;;;;;;;;5036374;28;20124;-62
2023/05/31 12:34:48;;;;;;;6.82;3.50;;;;;;;;;;5033095;28;20051;-62
2023/05/31 12:37:14;;;;;;;10.10;4.43;;;;;;;;;;5030691;28;20080;-62
2023/05/31 12:39:40;;;;;;;8.68;4.28;;;;;;;;;;5043000;28;20408;-62
2023/05/31 12:42:07;;;;;;;9.18;4.93;;;;;;;;;;5045898;28;20045;-64
2023/05/31 12:44:35;;;;;;;6.97;3.47;;;;;;;;;;5050008;28;20094;-62
2023/05/31 12:47:07;;;;;;;8.50;4.50;;;;;;;;;;5050547;28;20041;-62
2023/05/31 12:49:33;;;;;;;;;;;;;;;;;;5050469;28;20491;-62
2023/05/31 12:52:01;;;;;;;10.23;4.32;;;;;;;;;;5050441;28;19926;-62
2023/05/31 12:54:28;;;;;;;8.90;4.30;;;;;;;;;;5050829;28;20045;-62
2023/05/31 12:56:54;;;;;;;9.32;4.00;;;;;;;;;;5049373;28;20416;-62
2023/05/31 12:59:20;;;;;;;7.35;3.83;;;;;;;;;;5034860;28;20057;-62
2023/05/31 13:01:46;;;;;;;15.43;4.72;;;;;;;;;;5030025;28;20049;-62
2023/05/31 13:04:13;;;;;;;8.52;4.30;;;;;;;;;;5050131;28;20045;-62
2023/05/31 13:06:39;;;;;;;10.20;3.92;;;;;;;;;;5047640;28;20582;-62
2023/05/31 13:09:06;;;;;;;7.13;3.85;;;;;;;;;;5030461;28;20060;-62
2023/05/31 13:11:39;;;;;;;6.70;4.40;;;;;;;;;;5038889;28;20056;-62
2023/05/31 13:14:06;;;;;;;8.82;4.10;;;;;;;;;;5050382;28;20479;-62
2023/05/31 13:16:32;;;;;;;5.50;3.13;;;;;;;;;;5044296;28;20045;-62
2023/05/31 13:18:59;;;;;;;6.70;3.90;;;;;;;;;;5028839;28;20060;-62
2023/05/31 13:21:25;;;;;;;6.95;3.75;;;;;;;;;;5029033;28;20392;-62
2023/05/31 13:23:51;;;;;;;8.10;4.22;;;;;;;;;;5029311;28;20084;-62
2023/05/31 13:26:18;;;;;;;9.63;4.30;;;;;;;;;;5028223;28;20096;-62
2023/05/31 13:28:44;;;;;;;7.18;4.25;;;;;;;;;;5029512;28;20037;-62
2023/05/31 13:31:10;;;;;;;7.65;3.00;;;;;;;;;;5043792;28;20067;-62
2023/05/31 13:33:36;;;;;;;9.15;3.70;;;;;;;;;;5033460;28;20053;-62
2023/05/31 13:36:02;;;;;;;6.20;3.28;;;;;;;;;;5048614;28;20045;-62
2023/05/31 13:38:29;;;;;;;6.80;3.58;;;;;;;;;;5035081;28;20055;-62
2023/05/31 13:40:55;;;;;;;5.70;3.15;;;;;;;;;;5047734;28;20266;-62
2023/05/31 13:43:23;;;;;;;8.50;3.60;;;;;;;;;;5048157;28;20037;-62
2023/05/31 13:45:49;;;;;;;6.93;3.05;;;;;;;;;;5048674;28;20037;-62
2023/05/31 13:48:15;;;;;;;9.10;3.58;;;;;;;;;;5048060;28;21243;-62
2023/05/31 13:50:42;;;;;;;8.48;4.38;;;;;;;;;;5048707;28;20044;-62
2023/05/31 13:53:11;;;;;;;7.13;3.55;;;;;;;;;;5047852;28;20041;-62
2023/05/31 13:55:37;;;;;;;6.70;2.90;;;;;;;;;;5048391;28;20052;-62
2023/05/31 13:58:04;;;;;;;8.43;3.50;;;;;;;;;;5048588;28;20052;-62
2023/05/31 14:00:33;;;;;;;6.18;3.22;;;;;;;;;;5048730;28;20428;-62
2023/05/31 14:03:00;;;;;;;10.13;3.40;;;;;;;;;;5048051;28;20045;-62
2023/05/31 14:05:27;;;;;;;7.75;3.03;;;;;;;;;;5048486;28;20081;-62
2023/05/31 14:07:53;;;;;;;6.45;2.92;;;;;;;;;;5048697;28;20480;-62
2023/05/31 14:10:19;;;;;;;7.85;2.90;;;;;;;;;;5047998;28;20037;-62
2023/05/31 14:12:46;;;;;;;7.90;3.17;;;;;;;;;;5048525;28;20408;-62
2023/05/31 14:15:12;;;;;;;6.22;2.97;;;;;;;;;;5048350;28;20045;-62
2023/05/31 14:17:38;;;;;;;10.23;3.63;;;;;;;;;;5047663;28;20052;-62
2023/05/31 14:20:05;;;;;;;10.18;3.47;;;;;;;;;;5048517;28;20041;-62
2023/05/31 14:22:32;;;;;;;4.72;2.05;;;;;;;;;;5048311;28;20056;-62
2023/05/31 14:24:58;;;;;;;7.68;2.95;;;;;;;;;;5048000;28;20133;-62
2023/05/31 14:27:24;;;;;;;7.78;2.30;;;;;;;;;;5048530;28;20037;-62
2023/05/31 14:29:50;;;;;;;5.07;2.55;;;;;;;;;;5048283;28;20465;-62